Engla — SC2359 — position and weather

sailwx.info

Track history (hours):
 
Tides and Currents Weather Stations Pressure Air Temp Water Temp Dewpoint Dewpoint Depression Visibility Wind Speed Wind Dir Waves Ship Positions

Engla

Last reported at 2018-Jun-16 20:31 UTC. Time now 2018-Jun-21 08:30 UTC.
Position N 34°37' W 076°33'.

Length 13 m.

MMSI: 265529140.

Date/timePositionNaut miles runAvg speedWind from/ knotsBaromVisibWave heightAir tempDewpointWater temp
2018-Jun-16 20:31N 34°37' W 076°33'0 2.7
2018-Jun-16 20:23N 34°37' W 076°34'1 3.8
2018-Jun-16 20:00N 34°38' W 076°33'1 0.0
2018-Jun-15 19:02N 34°37' W 076°33'0 0.2
2018-Jun-15 19:00N 34°37' W 076°33'0 0.0
2018-Jun-14 10:21N 34°37' W 076°33'1 1.9
2018-Jun-14 09:58N 34°38' W 076°34'3 5.6
2018-Jun-14 09:30N 34°36' W 076°36'4 2.6
2018-Jun-14 08:07N 34°36' W 076°41'0 2.1
2018-Jun-14 08:00N 34°36' W 076°41'1 2.3
2018-Jun-14 07:27N 34°35' W 076°41'195 4.7
2018-Jun-12 14:11N 32°46' W 079°55'1 5.5
2018-Jun-12 14:00N 32°46' W 079°56'1 0.0
2018-Jun-10 23:04N 32°47' W 079°57'0 0.0
2018-Jun-10 22:58N 32°47' W 079°57'  
2018-Jun-07 21:29N 32°47' W 079°57'0 0.1
2018-Jun-07 20:59N 32°47' W 079°57'0 0.1
2018-Jun-07 20:30N 32°47' W 079°57'0 0.0
2018-Jun-07 20:01N 32°47' W 079°57'  
Track history (hours):
 
Tides and Currents Weather Stations Pressure Air Temp Water Temp Dewpoint Dewpoint Depression Visibility Wind Speed Wind Dir Waves Ship Positions

Engla

Last reported at 2018-Jun-16 20:31 UTC. Time now 2018-Jun-21 08:30 UTC.
Position N 34°37' W 076°33'.

Length 13 m.

MMSI: 265529140.

Date/timePositionNaut miles runAvg speedWind from/ knotsBaromVisibWave heightAir tempDewpointWater temp
2018-Jun-16 20:31N 34°37' W 076°33'0 2.7
2018-Jun-16 20:23N 34°37' W 076°34'1 3.8
2018-Jun-16 20:00N 34°38' W 076°33'1 0.0
2018-Jun-15 19:02N 34°37' W 076°33'0 0.2
2018-Jun-15 19:00N 34°37' W 076°33'0 0.0
2018-Jun-14 10:21N 34°37' W 076°33'1 1.9
2018-Jun-14 09:58N 34°38' W 076°34'3 5.6
2018-Jun-14 09:30N 34°36' W 076°36'4 2.6
2018-Jun-14 08:07N 34°36' W 076°41'0 2.1
2018-Jun-14 08:00N 34°36' W 076°41'1 2.3
2018-Jun-14 07:27N 34°35' W 076°41'195 4.7
2018-Jun-12 14:11N 32°46' W 079°55'1 5.5
2018-Jun-12 14:00N 32°46' W 079°56'1 0.0
2018-Jun-10 23:04N 32°47' W 079°57'0 0.0
2018-Jun-10 22:58N 32°47' W 079°57'  
2018-Jun-07 21:29N 32°47' W 079°57'0 0.1
2018-Jun-07 20:59N 32°47' W 079°57'0 0.1
2018-Jun-07 20:30N 32°47' W 079°57'0 0.0
2018-Jun-07 20:01N 32°47' W 079°57'  

Dump ship's entire track history